sensor_id;sensor_type;location;lat;lon;timestamp;P1;durP1;ratioP1;P2;durP2;ratioP2
30247;SDS011;17063;50.892;4.702;2023-09-19T00:00:44;9.60;;;1.83;;
30247;SDS011;17063;50.892;4.702;2023-09-19T00:03:14;10.20;;;2.00;;
30247;SDS011;17063;50.892;4.702;2023-09-19T00:05:41;9.80;;;1.73;;
30247;SDS011;17063;50.892;4.702;2023-09-19T00:08:12;8.37;;;1.80;;
30247;SDS011;17063;50.892;4.702;2023-09-19T00:10:40;11.43;;;2.53;;
30247;SDS011;17063;50.892;4.702;2023-09-19T00:13:09;6.43;;;1.60;;
30247;SDS011;17063;50.892;4.702;2023-09-19T00:15:40;16.53;;;2.50;;
30247;SDS011;17063;50.892;4.702;2023-09-19T00:18:09;10.47;;;1.83;;
30247;SDS011;17063;50.892;4.702;2023-09-19T00:20:36;10.43;;;2.20;;
30247;SDS011;17063;50.892;4.702;2023-09-19T00:23:04;9.70;;;1.80;;
30247;SDS011;17063;50.892;4.702;2023-09-19T00:25:36;13.57;;;1.73;;
30247;SDS011;17063;50.892;4.702;2023-09-19T00:28:04;10.00;;;2.23;;
30247;SDS011;17063;50.892;4.702;2023-09-19T00:30:32;9.67;;;2.10;;
30247;SDS011;17063;50.892;4.702;2023-09-19T00:32:59;10.00;;;2.27;;
30247;SDS011;17063;50.892;4.702;2023-09-19T00:35:28;11.37;;;2.10;;
30247;SDS011;17063;50.892;4.702;2023-09-19T00:37:55;8.27;;;2.47;;
30247;SDS011;17063;50.892;4.702;2023-09-19T00:40:22;6.77;;;1.90;;
30247;SDS011;17063;50.892;4.702;2023-09-19T00:42:48;7.37;;;1.90;;
30247;SDS011;17063;50.892;4.702;2023-09-19T00:45:16;11.13;;;1.67;;
30247;SDS011;17063;50.892;4.702;2023-09-19T00:47:51;11.77;;;1.93;;
30247;SDS011;17063;50.892;4.702;2023-09-19T00:50:19;10.67;;;2.07;;
30247;SDS011;17063;50.892;4.702;2023-09-19T00:52:48;8.67;;;2.40;;
30247;SDS011;17063;50.892;4.702;2023-09-19T00:55:16;10.63;;;2.20;;
30247;SDS011;17063;50.892;4.702;2023-09-19T00:57:46;12.27;;;2.23;;
30247;SDS011;17063;50.892;4.702;2023-09-19T01:00:16;13.07;;;2.50;;
30247;SDS011;17063;50.892;4.702;2023-09-19T01:02:47;9.00;;;1.90;;
30247;SDS011;17063;50.892;4.702;2023-09-19T01:05:14;9.37;;;2.30;;
30247;SDS011;17063;50.892;4.702;2023-09-19T01:07:42;9.53;;;1.93;;
30247;SDS011;17063;50.892;4.702;2023-09-19T01:10:11;5.10;;;1.80;;
30247;SDS011;17063;50.892;4.702;2023-09-19T01:15:25;10.63;;;2.03;;
30247;SDS011;17063;50.892;4.702;2023-09-19T01:18:08;8.80;;;2.17;;
30247;SDS011;17063;50.892;4.702;2023-09-19T01:31:59;8.30;;;1.93;;
30247;SDS011;17063;50.892;4.702;2023-09-19T01:37:20;8.43;;;2.20;;
30247;SDS011;17063;50.892;4.702;2023-09-19T01:39:53;6.03;;;1.60;;
30247;SDS011;17063;50.892;4.702;2023-09-19T01:42:36;7.60;;;2.40;;
30247;SDS011;17063;50.892;4.702;2023-09-19T01:47:50;7.80;;;1.97;;
30247;SDS011;17063;50.892;4.702;2023-09-19T01:52:59;11.70;;;2.73;;
30247;SDS011;17063;50.892;4.702;2023-09-19T01:55:32;11.73;;;1.93;;
30247;SDS011;17063;50.892;4.702;2023-09-19T01:58:07;8.37;;;1.90;;
30247;SDS011;17063;50.892;4.702;2023-09-19T02:00:40;12.47;;;2.23;;
30247;SDS011;17063;50.892;4.702;2023-09-19T02:03:09;9.20;;;1.83;;
30247;SDS011;17063;50.892;4.702;2023-09-19T02:05:37;13.10;;;2.43;;
30247;SDS011;17063;50.892;4.702;2023-09-19T02:08:04;9.13;;;2.10;;
30247;SDS011;17063;50.892;4.702;2023-09-19T02:10:31;10.40;;;2.37;;
30247;SDS011;17063;50.892;4.702;2023-09-19T02:12:58;10.20;;;2.30;;
30247;SDS011;17063;50.892;4.702;2023-09-19T02:15:25;9.70;;;1.93;;
30247;SDS011;17063;50.892;4.702;2023-09-19T02:17:54;9.77;;;2.30;;
30247;SDS011;17063;50.892;4.702;2023-09-19T02:20:23;9.97;;;1.70;;
30247;SDS011;17063;50.892;4.702;2023-09-19T02:22:50;7.43;;;1.87;;
30247;SDS011;17063;50.892;4.702;2023-09-19T02:25:18;9.23;;;1.97;;
30247;SDS011;17063;50.892;4.702;2023-09-19T02:27:46;10.53;;;2.00;;
30247;SDS011;17063;50.892;4.702;2023-09-19T02:30:13;6.83;;;2.07;;
30247;SDS011;17063;50.892;4.702;2023-09-19T02:32:42;10.00;;;1.87;;
30247;SDS011;17063;50.892;4.702;2023-09-19T02:35:09;11.77;;;2.30;;
30247;SDS011;17063;50.892;4.702;2023-09-19T02:37:38;18.73;;;3.23;;
30247;SDS011;17063;50.892;4.702;2023-09-19T02:40:05;6.63;;;1.97;;
30247;SDS011;17063;50.892;4.702;2023-09-19T02:42:46;6.53;;;1.87;;
30247;SDS011;17063;50.892;4.702;2023-09-19T02:45:16;10.63;;;2.57;;
30247;SDS011;17063;50.892;4.702;2023-09-19T02:47:47;9.07;;;2.33;;
30247;SDS011;17063;50.892;4.702;2023-09-19T02:50:14;14.80;;;2.10;;
30247;SDS011;17063;50.892;4.702;2023-09-19T02:52:44;10.20;;;2.13;;
30247;SDS011;17063;50.892;4.702;2023-09-19T02:55:17;10.60;;;2.20;;
30247;SDS011;17063;50.892;4.702;2023-09-19T02:57:47;15.60;;;3.20;;
30247;SDS011;17063;50.892;4.702;2023-09-19T03:00:15;12.13;;;2.40;;
30247;SDS011;17063;50.892;4.702;2023-09-19T03:02:42;18.43;;;2.63;;
30247;SDS011;17063;50.892;4.702;2023-09-19T03:05:11;9.20;;;1.90;;
30247;SDS011;17063;50.892;4.702;2023-09-19T03:07:38;13.73;;;3.00;;
30247;SDS011;17063;50.892;4.702;2023-09-19T03:10:06;10.63;;;2.57;;
30247;SDS011;17063;50.892;4.702;2023-09-19T03:12:34;11.07;;;2.53;;
30247;SDS011;17063;50.892;4.702;2023-09-19T03:15:01;10.90;;;2.50;;
30247;SDS011;17063;50.892;4.702;2023-09-19T03:17:28;9.53;;;2.70;;
30247;SDS011;17063;50.892;4.702;2023-09-19T03:19:55;13.60;;;2.53;;
30247;SDS011;17063;50.892;4.702;2023-09-19T03:22:24;13.57;;;1.80;;
30247;SDS011;17063;50.892;4.702;2023-09-19T03:24:51;6.60;;;1.90;;
30247;SDS011;17063;50.892;4.702;2023-09-19T03:27:18;13.70;;;2.63;;
30247;SDS011;17063;50.892;4.702;2023-09-19T03:29:47;10.07;;;2.33;;
30247;SDS011;17063;50.892;4.702;2023-09-19T03:32:14;12.93;;;2.30;;
30247;SDS011;17063;50.892;4.702;2023-09-19T03:34:41;10.73;;;2.73;;
30247;SDS011;17063;50.892;4.702;2023-09-19T03:37:11;9.80;;;2.17;;
30247;SDS011;17063;50.892;4.702;2023-09-19T03:39:44;9.20;;;2.00;;
30247;SDS011;17063;50.892;4.702;2023-09-19T03:42:14;11.10;;;2.30;;
30247;SDS011;17063;50.892;4.702;2023-09-19T03:44:44;11.73;;;2.30;;
30247;SDS011;17063;50.892;4.702;2023-09-19T03:47:11;8.70;;;2.10;;
30247;SDS011;17063;50.892;4.702;2023-09-19T03:49:38;10.70;;;1.87;;
30247;SDS011;17063;50.892;4.702;2023-09-19T03:52:05;14.17;;;2.63;;
30247;SDS011;17063;50.892;4.702;2023-09-19T03:54:32;9.47;;;2.17;;
30247;SDS011;17063;50.892;4.702;2023-09-19T03:56:59;9.00;;;2.33;;
30247;SDS011;17063;50.892;4.702;2023-09-19T03:59:26;8.67;;;2.30;;
30247;SDS011;17063;50.892;4.702;2023-09-19T04:01:54;6.83;;;2.27;;
30247;SDS011;17063;50.892;4.702;2023-09-19T04:04:23;11.17;;;2.27;;
30247;SDS011;17063;50.892;4.702;2023-09-19T04:06:51;10.87;;;1.63;;
30247;SDS011;17063;50.892;4.702;2023-09-19T04:09:18;13.00;;;2.70;;
30247;SDS011;17063;50.892;4.702;2023-09-19T04:11:45;8.43;;;2.10;;
30247;SDS011;17063;50.892;4.702;2023-09-19T04:14:12;11.20;;;2.60;;
30247;SDS011;17063;50.892;4.702;2023-09-19T04:16:39;10.23;;;1.97;;
30247;SDS011;17063;50.892;4.702;2023-09-19T04:19:06;12.47;;;2.23;;
30247;SDS011;17063;50.892;4.702;2023-09-19T04:21:32;15.17;;;3.53;;
30247;SDS011;17063;50.892;4.702;2023-09-19T04:23:59;9.67;;;2.60;;
30247;SDS011;17063;50.892;4.702;2023-09-19T04:26:26;7.73;;;2.20;;
30247;SDS011;17063;50.892;4.702;2023-09-19T04:28:53;10.33;;;2.23;;
30247;SDS011;17063;50.892;4.702;2023-09-19T04:31:20;10.87;;;2.57;;
30247;SDS011;17063;50.892;4.702;2023-09-19T04:33:48;10.17;;;2.67;;
30247;SDS011;17063;50.892;4.702;2023-09-19T04:36:15;8.30;;;2.17;;
30247;SDS011;17063;50.892;4.702;2023-09-19T04:39:01;8.00;;;2.10;;
30247;SDS011;17063;50.892;4.702;2023-09-19T04:41:31;14.77;;;2.70;;
30247;SDS011;17063;50.892;4.702;2023-09-19T04:43:58;11.23;;;2.50;;
30247;SDS011;17063;50.892;4.702;2023-09-19T04:46:25;12.23;;;2.20;;
30247;SDS011;17063;50.892;4.702;2023-09-19T04:48:52;10.10;;;2.27;;
30247;SDS011;17063;50.892;4.702;2023-09-19T04:51:19;11.53;;;2.13;;
30247;SDS011;17063;50.892;4.702;2023-09-19T04:53:47;5.10;;;2.00;;
30247;SDS011;17063;50.892;4.702;2023-09-19T04:56:14;11.80;;;3.10;;
30247;SDS011;17063;50.892;4.702;2023-09-19T04:58:41;11.73;;;2.23;;
30247;SDS011;17063;50.892;4.702;2023-09-19T05:01:08;12.63;;;3.93;;
30247;SDS011;17063;50.892;4.702;2023-09-19T05:03:37;17.10;;;2.80;;
30247;SDS011;17063;50.892;4.702;2023-09-19T05:06:05;9.60;;;2.00;;
30247;SDS011;17063;50.892;4.702;2023-09-19T05:08:32;10.27;;;2.27;;
30247;SDS011;17063;50.892;4.702;2023-09-19T05:11:01;8.97;;;2.17;;
30247;SDS011;17063;50.892;4.702;2023-09-19T05:13:28;10.80;;;2.20;;
30247;SDS011;17063;50.892;4.702;2023-09-19T05:15:55;7.67;;;2.13;;
30247;SDS011;17063;50.892;4.702;2023-09-19T05:18:28;10.00;;;2.00;;
30247;SDS011;17063;50.892;4.702;2023-09-19T05:20:55;9.20;;;1.90;;
30247;SDS011;17063;50.892;4.702;2023-09-19T05:23:22;18.03;;;2.33;;
30247;SDS011;17063;50.892;4.702;2023-09-19T05:25:49;10.30;;;2.47;;
30247;SDS011;17063;50.892;4.702;2023-09-19T05:28:17;10.17;;;2.27;;
30247;SDS011;17063;50.892;4.702;2023-09-19T05:30:44;9.10;;;2.57;;
30247;SDS011;17063;50.892;4.702;2023-09-19T05:33:14;11.90;;;2.00;;
30247;SDS011;17063;50.892;4.702;2023-09-19T05:35:41;11.17;;;2.00;;
30247;SDS011;17063;50.892;4.702;2023-09-19T05:38:08;13.63;;;2.30;;
30247;SDS011;17063;50.892;4.702;2023-09-19T05:40:35;7.43;;;2.07;;
30247;SDS011;17063;50.892;4.702;2023-09-19T05:43:02;13.07;;;2.10;;
30247;SDS011;17063;50.892;4.702;2023-09-19T05:45:32;13.67;;;2.23;;
30247;SDS011;17063;50.892;4.702;2023-09-19T05:48:07;11.13;;;3.10;;
30247;SDS011;17063;50.892;4.702;2023-09-19T05:50:38;7.87;;;1.93;;
30247;SDS011;17063;50.892;4.702;2023-09-19T05:53:05;11.13;;;2.50;;
30247;SDS011;17063;50.892;4.702;2023-09-19T05:55:33;7.90;;;2.20;;
30247;SDS011;17063;50.892;4.702;2023-09-19T05:58:01;15.63;;;2.30;;
30247;SDS011;17063;50.892;4.702;2023-09-19T06:00:30;10.47;;;1.83;;
30247;SDS011;17063;50.892;4.702;2023-09-19T06:02:58;12.73;;;2.00;;
30247;SDS011;17063;50.892;4.702;2023-09-19T06:05:26;14.87;;;2.77;;
30247;SDS011;17063;50.892;4.702;2023-09-19T06:07:55;10.73;;;2.13;;
30247;SDS011;17063;50.892;4.702;2023-09-19T06:10:27;5.00;;;1.80;;
30247;SDS011;17063;50.892;4.702;2023-09-19T06:12:56;14.30;;;2.23;;
30247;SDS011;17063;50.892;4.702;2023-09-19T06:15:24;12.90;;;2.20;;
30247;SDS011;17063;50.892;4.702;2023-09-19T06:17:54;9.70;;;2.00;;
30247;SDS011;17063;50.892;4.702;2023-09-19T06:20:22;9.00;;;2.03;;
30247;SDS011;17063;50.892;4.702;2023-09-19T06:22:52;9.47;;;1.97;;
30247;SDS011;17063;50.892;4.702;2023-09-19T06:25:20;11.13;;;2.10;;
30247;SDS011;17063;50.892;4.702;2023-09-19T06:27:49;14.20;;;2.30;;
30247;SDS011;17063;50.892;4.702;2023-09-19T06:30:26;9.07;;;2.13;;
30247;SDS011;17063;50.892;4.702;2023-09-19T06:32:56;12.07;;;2.40;;
30247;SDS011;17063;50.892;4.702;2023-09-19T06:35:25;8.57;;;2.40;;
30247;SDS011;17063;50.892;4.702;2023-09-19T06:37:56;11.07;;;2.00;;
30247;SDS011;17063;50.892;4.702;2023-09-19T06:40:25;10.27;;;2.13;;
30247;SDS011;17063;50.892;4.702;2023-09-19T06:42:52;9.87;;;2.30;;
30247;SDS011;17063;50.892;4.702;2023-09-19T06:45:19;8.60;;;2.60;;
30247;SDS011;17063;50.892;4.702;2023-09-19T06:47:51;11.17;;;2.30;;
30247;SDS011;17063;50.892;4.702;2023-09-19T06:50:19;8.27;;;1.90;;
30247;SDS011;17063;50.892;4.702;2023-09-19T06:52:50;9.50;;;2.13;;
30247;SDS011;17063;50.892;4.702;2023-09-19T06:55:18;10.30;;;1.97;;
30247;SDS011;17063;50.892;4.702;2023-09-19T06:57:47;11.20;;;2.20;;
30247;SDS011;17063;50.892;4.702;2023-09-19T07:00:14;16.93;;;2.50;;
30247;SDS011;17063;50.892;4.702;2023-09-19T07:02:42;9.13;;;2.17;;
30247;SDS011;17063;50.892;4.702;2023-09-19T07:05:09;8.27;;;2.33;;
30247;SDS011;17063;50.892;4.702;2023-09-19T07:07:36;13.70;;;2.07;;
30247;SDS011;17063;50.892;4.702;2023-09-19T07:10:03;11.73;;;2.10;;
30247;SDS011;17063;50.892;4.702;2023-09-19T07:12:34;11.13;;;2.07;;
30247;SDS011;17063;50.892;4.702;2023-09-19T07:15:01;10.97;;;1.90;;
30247;SDS011;17063;50.892;4.702;2023-09-19T07:17:29;10.10;;;2.43;;
30247;SDS011;17063;50.892;4.702;2023-09-19T07:19:56;12.53;;;2.30;;
30247;SDS011;17063;50.892;4.702;2023-09-19T07:22:28;6.97;;;2.00;;
30247;SDS011;17063;50.892;4.702;2023-09-19T07:24:55;13.63;;;2.47;;
30247;SDS011;17063;50.892;4.702;2023-09-19T07:27:22;7.00;;;1.80;;
30247;SDS011;17063;50.892;4.702;2023-09-19T07:29:48;14.70;;;2.70;;
30247;SDS011;17063;50.892;4.702;2023-09-19T07:32:19;10.87;;;2.67;;
30247;SDS011;17063;50.892;4.702;2023-09-19T07:34:46;6.83;;;1.87;;
30247;SDS011;17063;50.892;4.702;2023-09-19T07:37:13;9.20;;;2.00;;
30247;SDS011;17063;50.892;4.702;2023-09-19T07:39:42;9.13;;;2.57;;
30247;SDS011;17063;50.892;4.702;2023-09-19T07:42:11;12.67;;;2.27;;
30247;SDS011;17063;50.892;4.702;2023-09-19T07:44:44;9.27;;;2.10;;
30247;SDS011;17063;50.892;4.702;2023-09-19T07:47:14;7.23;;;1.93;;
30247;SDS011;17063;50.892;4.702;2023-09-19T07:49:41;9.40;;;2.00;;
30247;SDS011;17063;50.892;4.702;2023-09-19T07:52:09;12.73;;;2.43;;
30247;SDS011;17063;50.892;4.702;2023-09-19T07:54:37;13.83;;;2.17;;
30247;SDS011;17063;50.892;4.702;2023-09-19T07:57:05;11.67;;;2.10;;
30247;SDS011;17063;50.892;4.702;2023-09-19T07:59:39;13.70;;;2.07;;
30247;SDS011;17063;50.892;4.702;2023-09-19T08:02:08;16.03;;;2.37;;
30247;SDS011;17063;50.892;4.702;2023-09-19T08:04:42;11.70;;;2.10;;
30247;SDS011;17063;50.892;4.702;2023-09-19T08:07:12;6.63;;;1.63;;
30247;SDS011;17063;50.892;4.702;2023-09-19T08:09:40;8.73;;;2.27;;
30247;SDS011;17063;50.892;4.702;2023-09-19T08:12:07;6.93;;;2.07;;
30247;SDS011;17063;50.892;4.702;2023-09-19T08:14:36;9.93;;;2.03;;
30247;SDS011;17063;50.892;4.702;2023-09-19T08:17:08;13.23;;;2.37;;
30247;SDS011;17063;50.892;4.702;2023-09-19T08:19:35;14.20;;;2.17;;
30247;SDS011;17063;50.892;4.702;2023-09-19T08:22:03;13.57;;;2.17;;
30247;SDS011;17063;50.892;4.702;2023-09-19T08:24:30;8.33;;;2.20;;
30247;SDS011;17063;50.892;4.702;2023-09-19T08:26:57;10.07;;;1.97;;
30247;SDS011;17063;50.892;4.702;2023-09-19T08:29:24;16.13;;;2.10;;
30247;SDS011;17063;50.892;4.702;2023-09-19T08:31:55;12.53;;;2.57;;
30247;SDS011;17063;50.892;4.702;2023-09-19T08:34:23;7.73;;;2.27;;
30247;SDS011;17063;50.892;4.702;2023-09-19T08:36:52;9.50;;;2.07;;
30247;SDS011;17063;50.892;4.702;2023-09-19T08:39:24;12.63;;;2.27;;
30247;SDS011;17063;50.892;4.702;2023-09-19T08:41:58;14.27;;;2.33;;
30247;SDS011;17063;50.892;4.702;2023-09-19T08:44:28;9.10;;;2.30;;
30247;SDS011;17063;50.892;4.702;2023-09-19T08:47:06;9.93;;;1.90;;
30247;SDS011;17063;50.892;4.702;2023-09-19T08:52:41;8.73;;;2.20;;
30247;SDS011;17063;50.892;4.702;2023-09-19T08:55:12;14.00;;;2.37;;
30247;SDS011;17063;50.892;4.702;2023-09-19T08:57:49;12.40;;;2.57;;
30247;SDS011;17063;50.892;4.702;2023-09-19T09:00:16;12.00;;;2.43;;
30247;SDS011;17063;50.892;4.702;2023-09-19T09:02:47;11.97;;;2.27;;
30247;SDS011;17063;50.892;4.702;2023-09-19T09:05:16;12.70;;;2.30;;
30247;SDS011;17063;50.892;4.702;2023-09-19T09:07:49;14.60;;;2.40;;
30247;SDS011;17063;50.892;4.702;2023-09-19T09:10:18;8.03;;;1.87;;
30247;SDS011;17063;50.892;4.702;2023-09-19T09:12:52;8.47;;;1.70;;
30247;SDS011;17063;50.892;4.702;2023-09-19T09:15:21;9.30;;;2.07;;
30247;SDS011;17063;50.892;4.702;2023-09-19T09:17:50;10.77;;;2.17;;
30247;SDS011;17063;50.892;4.702;2023-09-19T09:20:20;9.47;;;2.40;;
30247;SDS011;17063;50.892;4.702;2023-09-19T09:22:54;13.53;;;2.10;;
30247;SDS011;17063;50.892;4.702;2023-09-19T09:25:22;12.70;;;2.57;;
30247;SDS011;17063;50.892;4.702;2023-09-19T09:27:58;8.43;;;1.97;;
30247;SDS011;17063;50.892;4.702;2023-09-19T09:30:34;7.17;;;1.87;;
30247;SDS011;17063;50.892;4.702;2023-09-19T09:33:08;7.43;;;1.90;;
30247;SDS011;17063;50.892;4.702;2023-09-19T09:38:19;5.03;;;1.60;;
30247;SDS011;17063;50.892;4.702;2023-09-19T09:40:50;9.80;;;1.77;;
30247;SDS011;17063;50.892;4.702;2023-09-19T09:43:28;11.10;;;2.00;;
30247;SDS011;17063;50.892;4.702;2023-09-19T09:46:11;11.87;;;2.17;;
30247;SDS011;17063;50.892;4.702;2023-09-19T09:51:48;9.73;;;2.07;;
30247;SDS011;17063;50.892;4.702;2023-09-19T09:54:37;8.73;;;1.60;;
30247;SDS011;17063;50.892;4.702;2023-09-19T10:02:18;7.00;;;1.53;;
30247;SDS011;17063;50.892;4.702;2023-09-19T10:05:25;7.90;;;2.00;;
30247;SDS011;17063;50.892;4.702;2023-09-19T10:08:11;6.80;;;1.43;;
30247;SDS011;17063;50.892;4.702;2023-09-19T10:10:39;5.07;;;1.53;;
30247;SDS011;17063;50.892;4.702;2023-09-19T10:13:10;8.03;;;2.07;;
30247;SDS011;17063;50.892;4.702;2023-09-19T10:15:48;7.43;;;1.73;;
30247;SDS011;17063;50.892;4.702;2023-09-19T10:18:33;7.27;;;1.83;;
30247;SDS011;17063;50.892;4.702;2023-09-19T10:21:34;7.20;;;1.43;;
30247;SDS011;17063;50.892;4.702;2023-09-19T10:24:11;8.03;;;1.67;;
30247;SDS011;17063;50.892;4.702;2023-09-19T10:26:41;6.50;;;1.30;;
30247;SDS011;17063;50.892;4.702;2023-09-19T10:29:10;4.43;;;1.30;;
30247;SDS011;17063;50.892;4.702;2023-09-19T10:31:37;6.43;;;1.77;;
30247;SDS011;17063;50.892;4.702;2023-09-19T10:34:07;5.43;;;1.33;;
30247;SDS011;17063;50.892;4.702;2023-09-19T10:36:36;5.37;;;1.20;;
30247;SDS011;17063;50.892;4.702;2023-09-19T10:39:04;6.77;;;1.40;;
30247;SDS011;17063;50.892;4.702;2023-09-19T10:41:36;2.60;;;1.30;;
30247;SDS011;17063;50.892;4.702;2023-09-19T10:44:04;12.03;;;2.00;;
30247;SDS011;17063;50.892;4.702;2023-09-19T10:46:36;4.37;;;1.60;;
30247;SDS011;17063;50.892;4.702;2023-09-19T10:49:05;9.50;;;1.90;;
30247;SDS011;17063;50.892;4.702;2023-09-19T10:51:37;5.50;;;1.43;;
30247;SDS011;17063;50.892;4.702;2023-09-19T10:54:11;6.83;;;1.33;;
30247;SDS011;17063;50.892;4.702;2023-09-19T10:56:42;7.87;;;1.10;;
30247;SDS011;17063;50.892;4.702;2023-09-19T10:59:16;7.33;;;1.73;;
30247;SDS011;17063;50.892;4.702;2023-09-19T11:01:46;10.23;;;1.47;;
30247;SDS011;17063;50.892;4.702;2023-09-19T11:04:25;6.20;;;1.77;;
30247;SDS011;17063;50.892;4.702;2023-09-19T11:09:45;4.80;;;1.43;;
30247;SDS011;17063;50.892;4.702;2023-09-19T11:14:52;10.00;;;1.53;;
30247;SDS011;17063;50.892;4.702;2023-09-19T11:30:39;5.57;;;1.20;;
30247;SDS011;17063;50.892;4.702;2023-09-19T11:43:48;2.93;;;1.27;;
30247;SDS011;17063;50.892;4.702;2023-09-19T11:46:21;5.03;;;1.10;;
30247;SDS011;17063;50.892;4.702;2023-09-19T11:48:49;6.60;;;1.10;;
30247;SDS011;17063;50.892;4.702;2023-09-19T11:51:17;6.07;;;1.33;;
30247;SDS011;17063;50.892;4.702;2023-09-19T11:53:57;7.77;;;1.10;;
30247;SDS011;17063;50.892;4.702;2023-09-19T11:56:29;7.00;;;1.23;;
30247;SDS011;17063;50.892;4.702;2023-09-19T11:58:58;6.10;;;1.20;;
30247;SDS011;17063;50.892;4.702;2023-09-19T12:01:30;2.80;;;1.47;;
30247;SDS011;17063;50.892;4.702;2023-09-19T12:04:03;8.00;;;1.40;;
30247;SDS011;17063;50.892;4.702;2023-09-19T12:06:31;6.40;;;1.37;;
30247;SDS011;17063;50.892;4.702;2023-09-19T12:09:02;6.47;;;1.03;;
30247;SDS011;17063;50.892;4.702;2023-09-19T12:11:33;4.83;;;1.30;;
30247;SDS011;17063;50.892;4.702;2023-09-19T12:14:09;5.33;;;1.20;;
30247;SDS011;17063;50.892;4.702;2023-09-19T12:16:36;4.17;;;1.40;;
30247;SDS011;17063;50.892;4.702;2023-09-19T12:19:18;6.07;;;1.10;;
30247;SDS011;17063;50.892;4.702;2023-09-19T12:21:56;3.97;;;1.03;;
30247;SDS011;17063;50.892;4.702;2023-09-19T12:24:31;1.73;;;0.93;;
30247;SDS011;17063;50.892;4.702;2023-09-19T12:27:05;4.33;;;1.43;;
30247;SDS011;17063;50.892;4.702;2023-09-19T12:32:10;3.67;;;1.10;;
30247;SDS011;17063;50.892;4.702;2023-09-19T12:34:37;4.03;;;0.70;;
30247;SDS011;17063;50.892;4.702;2023-09-19T12:39:49;4.97;;;0.90;;
30247;SDS011;17063;50.892;4.702;2023-09-19T12:42:19;6.30;;;1.00;;
30247;SDS011;17063;50.892;4.702;2023-09-19T12:44:56;5.80;;;1.10;;
30247;SDS011;17063;50.892;4.702;2023-09-19T12:47:24;6.40;;;1.13;;
30247;SDS011;17063;50.892;4.702;2023-09-19T12:52:45;1.83;;;0.90;;
30247;SDS011;17063;50.892;4.702;2023-09-19T12:55:23;6.73;;;1.37;;
30247;SDS011;17063;50.892;4.702;2023-09-19T13:00:40;2.80;;;1.33;;
30247;SDS011;17063;50.892;4.702;2023-09-19T13:03:09;4.33;;;1.13;;
30247;SDS011;17063;50.892;4.702;2023-09-19T13:05:46;6.57;;;1.37;;
30247;SDS011;17063;50.892;4.702;2023-09-19T13:08:20;4.50;;;1.40;;
30247;SDS011;17063;50.892;4.702;2023-09-19T13:11:06;4.70;;;1.20;;
30247;SDS011;17063;50.892;4.702;2023-09-19T13:13:37;3.80;;;1.07;;
30247;SDS011;17063;50.892;4.702;2023-09-19T13:16:21;4.23;;;0.90;;
30247;SDS011;17063;50.892;4.702;2023-09-19T13:18:54;4.53;;;1.10;;
30247;SDS011;17063;50.892;4.702;2023-09-19T13:21:33;5.67;;;0.80;;
30247;SDS011;17063;50.892;4.702;2023-09-19T13:24:20;5.77;;;1.20;;
30247;SDS011;17063;50.892;4.702;2023-09-19T13:26:54;4.47;;;1.00;;
30247;SDS011;17063;50.892;4.702;2023-09-19T13:29:22;3.40;;;1.10;;
30247;SDS011;17063;50.892;4.702;2023-09-19T13:31:52;4.17;;;1.10;;
30247;SDS011;17063;50.892;4.702;2023-09-19T13:34:19;5.47;;;1.60;;
30247;SDS011;17063;50.892;4.702;2023-09-19T13:36:47;2.17;;;0.90;;
30247;SDS011;17063;50.892;4.702;2023-09-19T13:39:17;3.63;;;1.10;;
30247;SDS011;17063;50.892;4.702;2023-09-19T13:41:44;1.83;;;1.17;;
30247;SDS011;17063;50.892;4.702;2023-09-19T13:44:14;2.80;;;1.40;;
30247;SDS011;17063;50.892;4.702;2023-09-19T13:46:45;6.03;;;1.17;;
30247;SDS011;17063;50.892;4.702;2023-09-19T13:49:18;3.17;;;1.03;;
30247;SDS011;17063;50.892;4.702;2023-09-19T13:51:48;6.50;;;1.20;;
30247;SDS011;17063;50.892;4.702;2023-09-19T13:54:16;2.43;;;0.80;;
30247;SDS011;17063;50.892;4.702;2023-09-19T13:56:43;2.73;;;1.10;;
30247;SDS011;17063;50.892;4.702;2023-09-19T13:59:10;4.63;;;0.90;;
30247;SDS011;17063;50.892;4.702;2023-09-19T14:01:37;3.77;;;1.30;;
30247;SDS011;17063;50.892;4.702;2023-09-19T14:04:05;3.57;;;1.50;;
30247;SDS011;17063;50.892;4.702;2023-09-19T14:06:32;5.53;;;1.20;;
30247;SDS011;17063;50.892;4.702;2023-09-19T14:09:02;2.23;;;1.10;;
30247;SDS011;17063;50.892;4.702;2023-09-19T14:11:30;3.40;;;1.10;;
30247;SDS011;17063;50.892;4.702;2023-09-19T14:13:57;5.83;;;1.03;;
30247;SDS011;17063;50.892;4.702;2023-09-19T14:16:24;3.57;;;1.10;;
30247;SDS011;17063;50.892;4.702;2023-09-19T14:18:57;3.80;;;1.20;;
30247;SDS011;17063;50.892;4.702;2023-09-19T14:21:24;3.73;;;1.10;;
30247;SDS011;17063;50.892;4.702;2023-09-19T14:23:51;3.37;;;1.13;;
30247;SDS011;17063;50.892;4.702;2023-09-19T14:26:18;5.43;;;1.40;;
30247;SDS011;17063;50.892;4.702;2023-09-19T14:28:45;2.90;;;1.00;;
30247;SDS011;17063;50.892;4.702;2023-09-19T14:31:12;4.23;;;1.20;;
30247;SDS011;17063;50.892;4.702;2023-09-19T14:33:39;7.33;;;1.00;;
30247;SDS011;17063;50.892;4.702;2023-09-19T14:36:07;5.83;;;1.50;;
30247;SDS011;17063;50.892;4.702;2023-09-19T14:38:37;4.37;;;1.20;;
30247;SDS011;17063;50.892;4.702;2023-09-19T14:41:06;4.00;;;1.53;;
30247;SDS011;17063;50.892;4.702;2023-09-19T14:43:33;5.70;;;1.40;;
30247;SDS011;17063;50.892;4.702;2023-09-19T14:46:03;3.40;;;1.20;;
30247;SDS011;17063;50.892;4.702;2023-09-19T14:48:37;4.03;;;1.23;;
30247;SDS011;17063;50.892;4.702;2023-09-19T14:51:06;7.73;;;1.40;;
30247;SDS011;17063;50.892;4.702;2023-09-19T14:53:35;3.87;;;1.10;;
30247;SDS011;17063;50.892;4.702;2023-09-19T14:56:07;5.80;;;1.10;;
30247;SDS011;17063;50.892;4.702;2023-09-19T14:58:34;6.87;;;1.60;;
30247;SDS011;17063;50.892;4.702;2023-09-19T15:01:05;6.33;;;1.33;;
30247;SDS011;17063;50.892;4.702;2023-09-19T15:03:33;4.40;;;1.23;;
30247;SDS011;17063;50.892;4.702;2023-09-19T15:06:03;4.47;;;1.20;;
30247;SDS011;17063;50.892;4.702;2023-09-19T15:08:34;6.70;;;1.30;;
30247;SDS011;17063;50.892;4.702;2023-09-19T15:11:01;5.73;;;1.27;;
30247;SDS011;17063;50.892;4.702;2023-09-19T15:13:32;4.10;;;1.10;;
30247;SDS011;17063;50.892;4.702;2023-09-19T15:16:02;3.67;;;1.40;;
30247;SDS011;17063;50.892;4.702;2023-09-19T15:18:30;6.60;;;1.30;;
30247;SDS011;17063;50.892;4.702;2023-09-19T15:21:00;7.27;;;1.53;;
30247;SDS011;17063;50.892;4.702;2023-09-19T15:23:27;2.63;;;1.43;;
30247;SDS011;17063;50.892;4.702;2023-09-19T15:25:58;4.77;;;1.30;;
30247;SDS011;17063;50.892;4.702;2023-09-19T15:28:25;3.67;;;1.30;;
30247;SDS011;17063;50.892;4.702;2023-09-19T15:31:05;3.40;;;1.57;;
30247;SDS011;17063;50.892;4.702;2023-09-19T15:33:32;5.83;;;1.60;;
30247;SDS011;17063;50.892;4.702;2023-09-19T15:36:00;4.23;;;1.50;;
30247;SDS011;17063;50.892;4.702;2023-09-19T15:41:38;3.20;;;1.47;;
30247;SDS011;17063;50.892;4.702;2023-09-19T15:44:42;4.33;;;1.47;;
30247;SDS011;17063;50.892;4.702;2023-09-19T15:48:22;4.00;;;1.83;;
30247;SDS011;17063;50.892;4.702;2023-09-19T15:50:52;4.97;;;1.47;;
30247;SDS011;17063;50.892;4.702;2023-09-19T15:53:22;3.87;;;1.50;;
30247;SDS011;17063;50.892;4.702;2023-09-19T15:55:50;10.17;;;1.50;;
30247;SDS011;17063;50.892;4.702;2023-09-19T15:58:18;4.53;;;1.50;;
30247;SDS011;17063;50.892;4.702;2023-09-19T16:00:45;8.07;;;1.33;;
30247;SDS011;17063;50.892;4.702;2023-09-19T16:03:12;4.13;;;1.30;;
30247;SDS011;17063;50.892;4.702;2023-09-19T16:05:39;2.27;;;1.30;;
30247;SDS011;17063;50.892;4.702;2023-09-19T16:08:06;2.33;;;1.10;;
30247;SDS011;17063;50.892;4.702;2023-09-19T16:10:36;6.70;;;1.63;;
30247;SDS011;17063;50.892;4.702;2023-09-19T16:13:04;3.17;;;1.00;;
30247;SDS011;17063;50.892;4.702;2023-09-19T16:15:31;6.53;;;1.80;;
30247;SDS011;17063;50.892;4.702;2023-09-19T16:17:59;8.00;;;1.43;;
30247;SDS011;17063;50.892;4.702;2023-09-19T16:20:27;6.07;;;1.30;;